Terminal Aerodrome Forecast
Issued by NWS Jackson, MS

Home | Current Version | Previous Version | Text Only | Print | Product List | Glossary On
Versions: 1 2 3 4 5 6 7 8 9 10 11 12 13 14
000
FTUS44 KJAN 302340
TAFJAN
TAF
KJAN 302340Z 3100/3124 VRB03KT P6SM SCT030 BKN060
     FM310800 17004KT 6SM BR BKN019 OVC030
     FM311500 21007KT P6SM BKN025 BKN050
     FM311800 22010G18KT P6SM SCT050=

USA.gov is the U.S. government's official web portal to all federal, state and local government web resources and services.